createdAt,value
2019-03-23T00:00:18.546Z,8.19
2019-03-23T00:01:18.500Z,8.28
2019-03-23T00:02:18.502Z,8.22
2019-03-23T00:03:18.506Z,8.29
2019-03-23T00:04:18.475Z,8.20
2019-03-23T00:05:18.458Z,8.29
2019-03-23T00:06:18.446Z,8.16
2019-03-23T00:07:18.435Z,8.11
2019-03-23T00:08:18.595Z,8.11
2019-03-23T00:09:18.409Z,8.10
2019-03-23T00:10:18.450Z,8.08
2019-03-23T00:11:18.387Z,8.07
2019-03-23T00:12:18.382Z,7.98
2019-03-23T00:13:18.363Z,7.92
2019-03-23T00:14:18.378Z,7.98
2019-03-23T00:15:18.345Z,7.93
2019-03-23T00:16:18.365Z,7.98
2019-03-23T00:17:18.322Z,8.05
2019-03-23T00:18:18.315Z,8.05
2019-03-23T00:19:18.310Z,8.07
2019-03-23T00:20:18.309Z,8.10
2019-03-23T00:21:18.283Z,8.00
2019-03-23T00:22:18.263Z,8.05
2019-03-23T00:23:18.257Z,8.05
2019-03-23T00:24:18.237Z,8.05
2019-03-23T00:25:18.281Z,8.07
2019-03-23T00:26:18.213Z,8.04
2019-03-23T00:27:18.211Z,8.00
2019-03-23T00:28:18.193Z,8.07
2019-03-23T00:29:18.243Z,8.11
2019-03-23T00:30:18.185Z,8.07
2019-03-23T00:31:18.173Z,8.12
2019-03-23T00:32:18.171Z,8.19
2019-03-23T00:33:18.134Z,8.08
2019-03-23T00:34:18.150Z,8.16
2019-03-23T00:35:18.140Z,8.12
2019-03-23T00:36:18.106Z,8.18
2019-03-23T00:37:20.106Z,8.15
2019-03-23T00:38:18.081Z,8.23
2019-03-23T00:39:18.067Z,8.12
2019-03-23T00:40:18.092Z,8.08
2019-03-23T00:41:18.042Z,8.08
2019-03-23T00:42:18.039Z,8.08
2019-03-23T00:43:18.052Z,8.16
2019-03-23T00:44:18.014Z,8.20
2019-03-23T00:45:18.032Z,8.05
2019-03-23T00:46:17.997Z,8.08
2019-03-23T00:47:18.021Z,8.04
2019-03-23T00:48:17.966Z,8.00
2019-03-23T00:49:17.957Z,8.07
2019-03-23T00:50:17.946Z,8.04
2019-03-23T00:51:17.934Z,8.05
2019-03-23T00:52:17.943Z,7.98
2019-03-23T00:53:17.914Z,7.95
2019-03-23T00:54:17.917Z,7.93
2019-03-23T00:55:17.928Z,7.89
2019-03-23T00:56:17.885Z,7.80
2019-03-23T00:57:17.915Z,7.80
2019-03-23T00:58:17.875Z,7.83
2019-03-23T00:59:17.837Z,7.92
2019-03-23T01:00:17.824Z,7.87
2019-03-23T01:01:17.836Z,7.98
2019-03-23T01:02:17.822Z,8.00
2019-03-23T01:03:17.795Z,7.89
2019-03-23T01:04:17.834Z,7.86
2019-03-23T01:05:17.767Z,7.92
2019-03-23T01:06:17.780Z,7.80
2019-03-23T01:07:17.747Z,7.86
2019-03-23T01:08:17.762Z,7.87
2019-03-23T01:09:17.770Z,7.83
2019-03-23T01:10:17.723Z,7.89
2019-03-23T01:11:17.698Z,7.86
2019-03-23T01:12:17.687Z,7.86
2019-03-23T01:13:17.681Z,7.87
2019-03-23T01:14:17.690Z,7.89
2019-03-23T01:15:17.680Z,7.75
2019-03-23T01:16:17.646Z,7.85
2019-03-23T01:17:17.636Z,7.71
2019-03-23T01:18:17.624Z,7.64
2019-03-23T01:19:17.624Z,7.71
2019-03-23T01:20:17.632Z,7.68
2019-03-23T01:21:17.587Z,7.68
2019-03-23T01:22:17.580Z,7.72
2019-03-23T01:23:17.569Z,7.74
2019-03-23T01:24:17.552Z,7.72
2019-03-23T01:25:17.551Z,7.74
2019-03-23T01:26:17.573Z,7.79
2019-03-23T01:27:17.528Z,7.80
2019-03-23T01:28:17.511Z,7.83
2019-03-23T01:29:17.507Z,7.86
2019-03-23T01:30:17.547Z,7.90
2019-03-23T01:31:17.485Z,7.92
2019-03-23T01:32:17.470Z,7.90
2019-03-23T01:33:17.454Z,7.92
2019-03-23T01:34:17.449Z,7.90
2019-03-23T01:35:17.461Z,7.85
2019-03-23T01:36:17.421Z,7.80
2019-03-23T01:37:17.419Z,7.77
2019-03-23T01:38:17.414Z,7.69
2019-03-23T01:39:17.394Z,7.67
2019-03-23T01:40:17.413Z,7.63
2019-03-23T01:41:17.370Z,7.74
2019-03-23T01:42:17.357Z,7.71
2019-03-23T01:43:17.349Z,7.61
2019-03-23T01:44:17.349Z,7.75
2019-03-23T01:45:17.328Z,7.80
2019-03-23T01:46:17.336Z,7.67
2019-03-23T01:47:17.302Z,7.71
2019-03-23T01:48:17.292Z,7.75
2019-03-23T01:49:17.279Z,7.83
2019-03-23T01:50:17.281Z,7.80
2019-03-23T01:51:17.289Z,7.79
2019-03-23T01:52:17.264Z,7.83
2019-03-23T01:53:17.281Z,7.83
2019-03-23T01:54:17.248Z,7.75
2019-03-23T01:55:17.232Z,7.75
2019-03-23T01:56:17.198Z,7.86
2019-03-23T01:57:17.221Z,7.77
2019-03-23T01:58:17.176Z,7.83
2019-03-23T01:59:17.181Z,7.75
2019-03-23T02:00:17.181Z,7.77
2019-03-23T02:01:17.302Z,7.75
2019-03-23T02:02:17.139Z,7.55
2019-03-23T02:03:17.162Z,7.52
2019-03-23T02:04:17.110Z,7.53
2019-03-23T02:05:17.097Z,7.60
2019-03-23T02:06:17.111Z,7.53
2019-03-23T02:07:17.112Z,7.53
2019-03-23T02:08:17.104Z,7.63
2019-03-23T02:09:17.076Z,7.57
2019-03-23T02:10:17.052Z,7.48
2019-03-23T02:11:17.033Z,7.57
2019-03-23T02:12:17.042Z,7.50
2019-03-23T02:13:17.018Z,7.45
2019-03-23T02:14:17.025Z,7.37
2019-03-23T02:15:16.995Z,7.43
2019-03-23T02:16:16.983Z,7.46
2019-03-23T02:17:16.992Z,7.46
2019-03-23T02:18:16.989Z,7.43
2019-03-23T02:19:16.947Z,7.42
2019-03-23T02:20:16.939Z,7.32
2019-03-23T02:21:16.945Z,7.46
2019-03-23T02:22:16.938Z,7.42
2019-03-23T02:23:16.917Z,7.43
2019-03-23T02:24:16.915Z,7.40
2019-03-23T02:25:16.882Z,7.42
2019-03-23T02:26:16.888Z,7.43
2019-03-23T02:27:16.859Z,7.46
2019-03-23T02:28:16.848Z,7.45
2019-03-23T02:29:16.837Z,7.52
2019-03-23T02:30:16.851Z,7.57
2019-03-23T02:31:16.811Z,7.52
2019-03-23T02:32:16.804Z,7.49
2019-03-23T02:33:16.788Z,7.50
2019-03-23T02:34:16.805Z,7.43
2019-03-23T02:35:16.788Z,7.39
2019-03-23T02:36:16.765Z,7.35
2019-03-23T02:37:27.146Z,7.25
2019-03-23T02:38:17.734Z,7.25
2019-03-23T02:39:16.736Z,7.32
2019-03-23T02:40:16.733Z,7.27
2019-03-23T02:41:16.702Z,7.25
2019-03-23T02:42:16.691Z,7.27
2019-03-23T02:43:16.701Z,7.13
2019-03-23T02:44:16.664Z,7.12
2019-03-23T02:45:16.680Z,7.06
2019-03-23T02:46:16.649Z,7.03
2019-03-23T02:47:16.652Z,7.13
2019-03-23T02:48:16.628Z,7.17
2019-03-23T02:49:16.622Z,7.12
2019-03-23T02:50:16.632Z,7.20
2019-03-23T02:51:16.626Z,7.20
2019-03-23T02:52:16.583Z,7.20
2019-03-23T02:53:16.578Z,7.09
2019-03-23T02:54:16.562Z,7.13
2019-03-23T02:55:16.545Z,7.09
2019-03-23T02:56:16.582Z,7.09
2019-03-23T02:57:16.524Z,7.02
2019-03-23T02:58:16.515Z,6.98
2019-03-23T02:59:16.503Z,6.98
2019-03-23T03:00:16.525Z,7.06
2019-03-23T03:01:16.480Z,7.09
2019-03-23T03:02:16.513Z,7.07
2019-03-23T03:03:16.496Z,7.23
2019-03-23T03:04:16.454Z,7.17
2019-03-23T03:05:16.449Z,7.05
2019-03-23T03:06:16.426Z,7.15
2019-03-23T03:07:16.473Z,7.15
2019-03-23T03:08:16.418Z,7.07
2019-03-23T03:09:16.400Z,7.05
2019-03-23T03:10:16.415Z,6.97
2019-03-23T03:11:16.397Z,6.95
2019-03-23T03:12:16.360Z,6.89
2019-03-23T03:13:16.408Z,6.98
2019-03-23T03:14:16.343Z,6.87
2019-03-23T03:15:16.334Z,6.98
2019-03-23T03:16:16.329Z,6.85
2019-03-23T03:17:16.319Z,6.77
2019-03-23T03:18:16.301Z,6.79
2019-03-23T03:19:16.571Z,6.77
2019-03-23T03:20:16.279Z,6.74
2019-03-23T03:21:16.262Z,6.87
2019-03-23T03:22:16.275Z,6.94
2019-03-23T03:23:16.244Z,6.92
2019-03-23T03:24:16.281Z,6.91
2019-03-23T03:25:16.221Z,6.85
2019-03-23T03:26:16.211Z,6.79
2019-03-23T03:27:16.227Z,6.66
2019-03-23T03:28:16.208Z,6.66
2019-03-23T03:29:16.176Z,6.66
2019-03-23T03:30:16.185Z,6.61
2019-03-23T03:31:16.151Z,6.59
2019-03-23T03:32:16.190Z,6.58
2019-03-23T03:33:16.133Z,6.59
2019-03-23T03:34:16.124Z,6.56
2019-03-23T03:35:16.113Z,6.59
2019-03-23T03:36:16.128Z,6.59
2019-03-23T03:37:16.094Z,6.62
2019-03-23T03:38:16.140Z,6.70
2019-03-23T03:39:16.077Z,6.59
2019-03-23T03:40:16.055Z,6.51
2019-03-23T03:41:16.048Z,6.51
2019-03-23T03:42:16.039Z,6.56
2019-03-23T03:43:16.063Z,6.64
2019-03-23T03:44:16.020Z,6.55
2019-03-23T03:45:16.001Z,6.62
2019-03-23T03:46:15.987Z,6.49
2019-03-23T03:47:15.980Z,6.55
2019-03-23T03:48:15.992Z,6.51
2019-03-23T03:49:15.962Z,6.52
2019-03-23T03:50:15.948Z,6.52
2019-03-23T03:51:15.949Z,6.34
2019-03-23T03:52:15.931Z,6.37
2019-03-23T03:53:15.949Z,6.41
2019-03-23T03:54:15.914Z,6.36
2019-03-23T03:55:15.912Z,6.33
2019-03-23T03:56:15.886Z,6.58
2019-03-23T03:57:15.879Z,6.54
2019-03-23T03:58:15.896Z,6.56
2019-03-23T03:59:15.876Z,6.49
2019-03-23T04:00:15.843Z,6.56
2019-03-23T04:01:15.855Z,6.58
2019-03-23T04:02:15.820Z,6.48
2019-03-23T04:03:15.824Z,6.48
2019-03-23T04:04:15.824Z,6.55
2019-03-23T04:05:15.836Z,6.55
2019-03-23T04:06:15.800Z,6.59
2019-03-23T04:07:15.789Z,6.70
2019-03-23T04:08:15.762Z,6.67
2019-03-23T04:09:15.750Z,6.62
2019-03-23T04:10:15.751Z,6.64
2019-03-23T04:11:15.758Z,6.59
2019-03-23T04:12:15.712Z,6.56
2019-03-23T04:13:15.714Z,6.64
2019-03-23T04:14:15.694Z,6.59
2019-03-23T04:15:15.681Z,6.61
2019-03-23T04:16:15.700Z,6.55
2019-03-23T04:17:15.657Z,6.52
2019-03-23T04:18:15.652Z,6.56
2019-03-23T04:19:15.642Z,6.62
2019-03-23T04:20:15.636Z,6.59
2019-03-23T04:21:15.672Z,6.46
2019-03-23T04:22:15.614Z,6.62
2019-03-23T04:23:15.605Z,6.56
2019-03-23T04:24:15.583Z,6.51
2019-03-23T04:25:15.584Z,6.49
2019-03-23T04:26:15.568Z,6.46
2019-03-23T04:27:15.600Z,6.48
2019-03-23T04:28:15.542Z,6.51
2019-03-23T04:29:15.547Z,6.52
2019-03-23T04:30:15.519Z,6.58
2019-03-23T04:31:15.577Z,6.54
2019-03-23T04:32:15.519Z,6.64
2019-03-23T04:33:15.505Z,6.59
2019-03-23T04:34:15.482Z,6.58
2019-03-23T04:35:15.466Z,6.56
2019-03-23T04:36:15.456Z,6.66
2019-03-23T04:37:15.485Z,6.56
2019-03-23T04:38:22.724Z,6.66
2019-03-23T04:39:16.421Z,6.70
2019-03-23T04:40:15.459Z,6.80
2019-03-23T04:41:15.408Z,6.74
2019-03-23T04:42:15.411Z,6.84
2019-03-23T04:43:15.384Z,6.85
2019-03-23T04:44:15.370Z,6.94
2019-03-23T04:45:15.366Z,6.98
2019-03-23T04:46:15.353Z,6.91
2019-03-23T04:47:15.371Z,6.97
2019-03-23T04:48:15.325Z,6.95
2019-03-23T04:49:15.322Z,6.97
2019-03-23T04:50:15.302Z,7.03
2019-03-23T04:51:15.300Z,6.98
2019-03-23T04:52:15.288Z,7.06
2019-03-23T04:53:15.303Z,7.09
2019-03-23T04:54:15.256Z,6.98
2019-03-23T04:55:15.257Z,6.97
2019-03-23T04:56:15.249Z,6.97
2019-03-23T04:57:15.252Z,6.97
2019-03-23T04:58:15.263Z,6.94
2019-03-23T04:59:15.209Z,6.98
2019-03-23T05:00:15.190Z,6.77
2019-03-23T05:01:15.181Z,6.67
2019-03-23T05:02:15.175Z,6.59
2019-03-23T05:03:15.186Z,6.36
2019-03-23T05:04:15.158Z,6.37
2019-03-23T05:05:15.145Z,6.30
2019-03-23T05:06:15.153Z,6.43
2019-03-23T05:07:15.123Z,6.49
2019-03-23T05:08:15.130Z,6.44
2019-03-23T05:09:15.093Z,6.37
2019-03-23T05:10:15.086Z,6.34
2019-03-23T05:11:15.113Z,6.36
2019-03-23T05:12:15.060Z,6.31
2019-03-23T05:13:15.074Z,6.30
2019-03-23T05:14:15.046Z,6.30
2019-03-23T05:15:15.037Z,6.37
2019-03-23T05:16:15.025Z,6.43
2019-03-23T05:17:15.029Z,6.49
2019-03-23T05:18:15.011Z,6.52
2019-03-23T05:19:15.007Z,6.56
2019-03-23T05:20:14.977Z,6.52
2019-03-23T05:21:14.974Z,6.52
2019-03-23T05:22:14.959Z,6.52
2019-03-23T05:23:14.941Z,6.58
2019-03-23T05:24:14.950Z,6.69
2019-03-23T05:25:14.924Z,6.49
2019-03-23T05:26:14.920Z,6.55
2019-03-23T05:27:14.897Z,6.59
2019-03-23T05:28:14.890Z,6.46
2019-03-23T05:29:14.897Z,6.58
2019-03-23T05:30:14.897Z,6.55
2019-03-23T05:31:14.855Z,6.55
2019-03-23T05:32:14.847Z,6.58
2019-03-23T05:33:14.847Z,6.52
2019-03-23T05:34:14.874Z,6.51
2019-03-23T05:35:14.822Z,6.49
2019-03-23T05:36:15.401Z,6.48
2019-03-23T05:37:14.787Z,6.52
2019-03-23T05:38:14.793Z,6.52
2019-03-23T05:39:14.770Z,6.54
2019-03-23T05:40:14.806Z,6.55
2019-03-23T05:41:14.745Z,6.54
2019-03-23T05:42:14.759Z,6.61
2019-03-23T05:43:14.719Z,6.67
2019-03-23T05:44:14.713Z,6.67
2019-03-23T05:45:14.727Z,6.70
2019-03-23T05:46:14.710Z,6.61
2019-03-23T05:47:14.698Z,6.66
2019-03-23T05:48:14.665Z,6.70
2019-03-23T05:49:14.681Z,6.73
2019-03-23T05:50:14.643Z,6.77
2019-03-23T05:51:14.660Z,6.76
2019-03-23T05:52:14.644Z,6.76
2019-03-23T05:53:14.611Z,6.74
2019-03-23T05:54:14.605Z,6.74
2019-03-23T05:55:14.608Z,6.84
2019-03-23T05:56:14.625Z,6.94
2019-03-23T05:57:14.591Z,6.95
2019-03-23T05:58:14.572Z,6.98
2019-03-23T05:59:14.577Z,7.02
2019-03-23T06:00:14.538Z,6.91
2019-03-23T06:01:14.526Z,6.97
2019-03-23T06:02:14.542Z,6.95
2019-03-23T06:03:14.510Z,6.99
2019-03-23T06:04:14.501Z,7.05
2019-03-23T06:05:14.488Z,7.06
2019-03-23T06:06:14.473Z,7.07
2019-03-23T06:07:14.516Z,7.15
2019-03-23T06:08:14.454Z,7.25
2019-03-23T06:09:14.468Z,7.20
2019-03-23T06:10:14.444Z,7.12
2019-03-23T06:11:14.420Z,7.27
2019-03-23T06:12:14.415Z,7.20
2019-03-23T06:13:14.440Z,7.27
2019-03-23T06:14:14.432Z,7.17
2019-03-23T06:15:14.379Z,7.23
2019-03-23T06:16:14.412Z,7.23
2019-03-23T06:17:14.362Z,7.27
2019-03-23T06:18:14.373Z,7.25
2019-03-23T06:19:14.337Z,7.27
2019-03-23T06:20:14.341Z,7.23
2019-03-23T06:21:14.317Z,7.31
2019-03-23T06:22:14.304Z,7.34
2019-03-23T06:23:14.334Z,7.27
2019-03-23T06:24:14.290Z,7.24
2019-03-23T06:25:14.277Z,7.09
2019-03-23T06:26:14.279Z,7.21
2019-03-23T06:27:14.275Z,7.17
2019-03-23T06:28:14.260Z,7.16
2019-03-23T06:29:14.257Z,7.13
2019-03-23T06:30:14.244Z,7.27
2019-03-23T06:31:14.207Z,7.28
2019-03-23T06:32:14.214Z,7.23
2019-03-23T06:33:14.220Z,7.30
2019-03-23T06:34:14.178Z,7.24
2019-03-23T06:35:14.175Z,7.24
2019-03-23T06:36:14.153Z,7.27
2019-03-23T06:37:14.142Z,7.28
2019-03-23T06:38:16.258Z,7.31
2019-03-23T06:39:14.122Z,7.34
2019-03-23T06:40:14.109Z,7.43
2019-03-23T06:41:14.097Z,7.43
2019-03-23T06:42:14.089Z,7.46
2019-03-23T06:43:14.114Z,7.42
2019-03-23T06:44:14.089Z,7.43
2019-03-23T06:45:14.062Z,7.46
2019-03-23T06:46:14.043Z,7.46
2019-03-23T06:47:14.067Z,7.45
2019-03-23T06:48:14.022Z,7.40
2019-03-23T06:49:14.037Z,7.46
2019-03-23T06:50:14.005Z,7.53
2019-03-23T06:51:14.036Z,7.46
2019-03-23T06:52:13.983Z,7.43
2019-03-23T06:53:14.017Z,7.46
2019-03-23T06:54:13.981Z,7.49
2019-03-23T06:55:13.956Z,7.61
2019-03-23T06:56:13.954Z,7.52
2019-03-23T06:57:13.940Z,7.64
2019-03-23T06:58:13.918Z,7.68
2019-03-23T06:59:13.930Z,7.69
2019-03-23T07:00:13.918Z,7.79
2019-03-23T07:01:13.902Z,7.69
2019-03-23T07:02:13.866Z,7.80
2019-03-23T07:03:13.860Z,7.75
2019-03-23T07:04:13.844Z,7.87
2019-03-23T07:05:13.879Z,7.77
2019-03-23T07:06:13.828Z,7.86
2019-03-23T07:07:13.811Z,7.86
2019-03-23T07:08:13.804Z,7.87
2019-03-23T07:09:16.432Z,7.90
2019-03-23T07:10:13.788Z,7.93
2019-03-23T07:11:13.792Z,7.92
2019-03-23T07:12:13.764Z,7.90
2019-03-23T07:13:13.772Z,8.05
2019-03-23T07:14:13.772Z,8.02
2019-03-23T07:15:20.078Z,8.00
2019-03-23T07:16:14.740Z,8.04
2019-03-23T07:17:13.694Z,8.07
2019-03-23T07:18:13.696Z,8.05
2019-03-23T07:19:13.677Z,8.07
2019-03-23T07:20:13.664Z,8.23
2019-03-23T07:21:13.683Z,8.20
2019-03-23T07:22:13.641Z,8.11
2019-03-23T07:23:13.630Z,8.23
2019-03-23T07:24:13.616Z,8.26
2019-03-23T07:25:13.636Z,8.33
2019-03-23T07:26:13.606Z,8.28
2019-03-23T07:27:13.609Z,8.38
2019-03-23T07:28:13.568Z,8.45
2019-03-23T07:29:13.562Z,8.44
2019-03-23T07:30:13.564Z,8.38
2019-03-23T07:31:13.544Z,8.40
2019-03-23T07:32:13.566Z,8.48
2019-03-23T07:33:13.512Z,8.48
2019-03-23T07:34:13.499Z,8.52
2019-03-23T07:35:13.490Z,8.61
2019-03-23T07:36:13.527Z,8.65
2019-03-23T07:37:13.467Z,8.62
2019-03-23T07:38:13.491Z,8.62
2019-03-23T07:39:13.477Z,8.65
2019-03-23T07:40:13.434Z,8.70
2019-03-23T07:41:13.425Z,8.77
2019-03-23T07:42:13.466Z,8.80
2019-03-23T07:43:13.429Z,8.86
2019-03-23T07:44:13.392Z,8.89
2019-03-23T07:45:13.376Z,8.89
2019-03-23T07:46:13.377Z,8.83
2019-03-23T07:47:13.359Z,9.01
2019-03-23T07:48:13.369Z,9.02
2019-03-23T07:49:13.334Z,9.20
2019-03-23T07:50:13.337Z,9.11
2019-03-23T07:51:13.315Z,9.23
2019-03-23T07:52:13.308Z,9.31
2019-03-23T07:53:13.310Z,9.23
2019-03-23T07:54:13.303Z,9.32
2019-03-23T07:55:13.274Z,9.33
2019-03-23T07:56:13.260Z,9.38
2019-03-23T07:57:13.245Z,9.48
2019-03-23T07:58:13.263Z,9.56
2019-03-23T07:59:13.248Z,9.64
2019-03-23T08:00:13.232Z,9.60
2019-03-23T08:01:13.205Z,9.69
2019-03-23T08:02:13.192Z,9.76
2019-03-23T08:03:13.207Z,9.76
2019-03-23T08:04:13.203Z,9.76
2019-03-23T08:05:13.162Z,9.86
2019-03-23T08:06:13.144Z,9.90
2019-03-23T08:07:13.142Z,9.97
2019-03-23T08:08:13.122Z,10.02
2019-03-23T08:09:20.457Z,10.14
2019-03-23T08:10:14.124Z,10.11
2019-03-23T08:11:13.094Z,10.15
2019-03-23T08:12:13.079Z,10.27
2019-03-23T08:13:13.096Z,10.25
2019-03-23T08:14:13.086Z,10.33
2019-03-23T08:15:13.070Z,10.38
2019-03-23T08:16:13.033Z,10.44
2019-03-23T08:17:13.033Z,10.48
2019-03-23T08:18:13.022Z,10.53
2019-03-23T08:19:13.005Z,10.67
2019-03-23T08:20:13.011Z,10.66
2019-03-23T08:21:12.979Z,10.78
2019-03-23T08:22:12.974Z,10.74
2019-03-23T08:23:12.956Z,10.78
2019-03-23T08:24:12.964Z,10.81
2019-03-23T08:25:13.028Z,10.89
2019-03-23T08:26:12.927Z,10.99
2019-03-23T08:27:12.910Z,11.06
2019-03-23T08:28:12.904Z,11.18
2019-03-23T08:29:12.900Z,11.21
2019-03-23T08:30:12.879Z,11.32
2019-03-23T08:31:12.912Z,11.28
2019-03-23T08:32:12.873Z,11.36
2019-03-23T08:33:12.859Z,11.37
2019-03-23T08:34:12.832Z,11.55
2019-03-23T08:35:12.826Z,11.54
2019-03-23T08:36:12.846Z,11.61
2019-03-23T08:37:12.798Z,11.62
2019-03-23T08:38:12.804Z,11.64
2019-03-23T08:39:12.781Z,11.78
2019-03-23T08:40:12.764Z,11.88
2019-03-23T08:41:12.796Z,11.90
2019-03-23T08:42:12.747Z,11.98
2019-03-23T08:43:12.738Z,12.09
2019-03-23T08:44:12.742Z,12.19
2019-03-23T08:45:12.717Z,12.19
2019-03-23T08:46:12.758Z,12.29
2019-03-23T08:47:12.694Z,12.42
2019-03-23T08:48:12.685Z,12.45
2019-03-23T08:49:12.670Z,12.49
2019-03-23T08:50:12.663Z,12.54
2019-03-23T08:51:12.653Z,12.56
2019-03-23T08:52:12.703Z,12.60
2019-03-23T08:53:12.623Z,12.70
2019-03-23T08:54:12.615Z,12.67
2019-03-23T08:55:12.619Z,12.68
2019-03-23T08:56:12.590Z,12.74
2019-03-23T08:57:12.583Z,12.79
2019-03-23T08:58:12.620Z,12.83
2019-03-23T08:59:12.601Z,12.79
2019-03-23T09:00:12.552Z,12.87
2019-03-23T09:01:12.532Z,12.90
2019-03-23T09:02:12.536Z,12.92
2019-03-23T09:03:12.512Z,12.92
2019-03-23T09:04:12.536Z,12.96
2019-03-23T09:05:12.488Z,12.97
2019-03-23T09:06:12.478Z,13.07
2019-03-23T09:07:12.468Z,13.10
2019-03-23T09:08:12.477Z,13.08
2019-03-23T09:09:12.442Z,13.08
2019-03-23T09:10:12.437Z,13.19
2019-03-23T09:11:20.201Z,13.22
2019-03-23T09:12:13.409Z,13.17
2019-03-23T09:13:12.429Z,13.25
2019-03-23T09:14:12.401Z,13.30
2019-03-23T09:15:12.379Z,13.32
2019-03-23T09:16:12.375Z,13.45
2019-03-23T09:17:12.366Z,13.38
2019-03-23T09:18:12.389Z,13.52
2019-03-23T09:19:12.333Z,13.48
2019-03-23T09:20:12.328Z,13.59
2019-03-23T09:21:13.002Z,13.59
2019-03-23T09:22:12.305Z,13.59
2019-03-23T09:23:12.303Z,13.63
2019-03-23T09:24:12.308Z,13.60
2019-03-23T09:25:12.291Z,13.62
2019-03-23T09:26:13.741Z,13.73
2019-03-23T09:27:12.732Z,13.73
2019-03-23T09:28:12.243Z,13.84
2019-03-23T09:29:12.266Z,13.88
2019-03-23T09:30:12.216Z,13.91
2019-03-23T09:31:12.209Z,13.88
2019-03-23T09:32:12.196Z,14.03
2019-03-23T09:33:12.188Z,14.04
2019-03-23T09:34:12.170Z,14.04
2019-03-23T09:35:12.189Z,14.03
2019-03-23T09:36:12.151Z,14.09
2019-03-23T09:37:12.144Z,14.21
2019-03-23T09:38:12.142Z,14.18
2019-03-23T09:39:12.150Z,14.17
2019-03-23T09:40:12.125Z,14.14
2019-03-23T09:41:12.090Z,14.15
2019-03-23T09:42:12.082Z,14.18
2019-03-23T09:43:12.072Z,14.24
2019-03-23T09:44:12.098Z,14.32
2019-03-23T09:45:14.139Z,14.29
2019-03-23T09:46:12.066Z,14.37
2019-03-23T09:47:12.048Z,14.46
2019-03-23T09:48:12.021Z,14.50
2019-03-23T09:49:12.003Z,14.37
2019-03-23T09:50:11.999Z,14.51
2019-03-23T09:51:12.010Z,14.62
2019-03-23T09:52:11.980Z,14.64
2019-03-23T09:53:11.956Z,14.68
2019-03-23T09:54:12.198Z,14.64
2019-03-23T09:55:11.938Z,14.65
2019-03-23T09:56:11.953Z,14.75
2019-03-23T09:57:11.920Z,14.68
2019-03-23T09:58:11.939Z,14.70
2019-03-23T09:59:11.906Z,14.75
2019-03-23T10:00:11.881Z,14.68
2019-03-23T10:01:11.930Z,14.80
2019-03-23T10:02:11.860Z,14.86
2019-03-23T10:03:11.857Z,14.92
2019-03-23T10:04:11.842Z,14.84
2019-03-23T10:05:11.824Z,14.84
2019-03-23T10:06:11.815Z,14.96
2019-03-23T10:07:11.830Z,14.94
2019-03-23T10:08:11.820Z,14.99
2019-03-23T10:09:11.780Z,15.02
2019-03-23T10:10:21.344Z,15.03
2019-03-23T10:11:12.773Z,15.06
2019-03-23T10:12:11.771Z,14.99
2019-03-23T10:13:11.735Z,15.14
2019-03-23T10:14:11.751Z,15.13
2019-03-23T10:15:11.720Z,15.25
2019-03-23T10:16:11.714Z,15.19
2019-03-23T10:17:11.720Z,15.34
2019-03-23T10:18:11.683Z,15.43
2019-03-23T10:19:11.683Z,15.47
2019-03-23T10:20:11.669Z,15.50
2019-03-23T10:21:11.656Z,15.47
2019-03-23T10:22:11.676Z,15.53
2019-03-23T10:23:11.658Z,15.65
2019-03-23T10:24:11.625Z,15.67
2019-03-23T10:25:11.603Z,15.65
2019-03-23T10:26:11.602Z,15.67
2019-03-23T10:27:11.595Z,15.68
2019-03-23T10:28:11.614Z,15.69
2019-03-23T10:29:11.561Z,15.75
2019-03-23T10:30:11.553Z,15.75
2019-03-23T10:31:11.542Z,15.80
2019-03-23T10:32:11.528Z,15.76
2019-03-23T10:33:11.514Z,15.68
2019-03-23T10:34:11.531Z,15.62
2019-03-23T10:35:11.492Z,15.62
2019-03-23T10:36:12.348Z,15.65
2019-03-23T10:37:11.469Z,15.80
2019-03-23T10:38:11.475Z,15.74
2019-03-23T10:39:11.485Z,15.82
2019-03-23T10:40:11.453Z,15.76
2019-03-23T10:41:11.438Z,15.83
2019-03-23T10:44:00.419Z,15.93
2019-03-23T10:44:19.717Z,15.96
2019-03-23T10:45:19.712Z,15.94
2019-03-23T10:47:28.076Z,16.11
2019-03-23T10:48:27.973Z,16.15
2019-03-23T10:49:27.953Z,16.14
2019-03-23T10:50:27.987Z,16.28
2019-03-23T10:51:27.935Z,16.27
2019-03-23T10:52:27.927Z,16.28
2019-03-23T10:53:27.909Z,16.39
2019-03-23T10:54:56.760Z,16.48
2019-03-23T10:55:27.890Z,16.41
2019-03-23T10:56:27.911Z,16.50
2019-03-23T10:57:27.870Z,16.50
2019-03-23T10:58:27.873Z,16.49
2019-03-23T10:59:28.091Z,16.60
2019-03-23T11:00:27.861Z,16.66
2019-03-23T11:01:27.847Z,16.60
2019-03-23T11:02:27.823Z,16.66
2019-03-23T11:03:27.813Z,16.73
2019-03-23T11:04:27.948Z,16.76
2019-03-23T11:05:27.778Z,16.86
2019-03-23T11:06:27.793Z,16.79
2019-03-23T11:07:27.751Z,16.82
2019-03-23T11:08:27.741Z,16.81
2019-03-23T11:09:27.727Z,16.75
2019-03-23T11:10:27.723Z,16.76
2019-03-23T11:11:27.764Z,16.76
2019-03-23T11:12:27.700Z,16.81
2019-03-23T11:13:27.692Z,16.88
2019-03-23T11:14:27.766Z,16.85
2019-03-23T11:15:27.673Z,16.93
2019-03-23T11:16:27.858Z,16.93
2019-03-23T11:17:27.668Z,16.89
2019-03-23T11:18:27.634Z,16.88
2019-03-23T11:19:27.619Z,16.85
2019-03-23T11:20:27.646Z,16.81
2019-03-23T11:21:27.599Z,16.88
2019-03-23T11:22:27.603Z,16.94
2019-03-23T11:23:27.630Z,16.91
2019-03-23T11:24:27.567Z,16.88
2019-03-23T11:25:27.547Z,16.89
2019-03-23T11:26:28.214Z,16.89
2019-03-23T11:27:27.574Z,16.86
2019-03-23T11:28:27.522Z,16.96
2019-03-23T11:29:27.527Z,16.93
2019-03-23T11:30:27.507Z,16.88
2019-03-23T11:31:27.481Z,16.91
2019-03-23T11:32:27.476Z,16.82
2019-03-23T11:33:27.486Z,16.93
2019-03-23T11:34:27.447Z,16.97
2019-03-23T11:35:27.441Z,17.01
2019-03-23T11:36:27.431Z,16.98
2019-03-23T11:37:27.477Z,17.06
2019-03-23T11:38:27.439Z,16.96
2019-03-23T11:39:27.399Z,16.86
2019-03-23T11:40:27.431Z,16.91
2019-03-23T11:41:27.377Z,17.00
2019-03-23T11:42:27.358Z,17.08
2019-03-23T11:43:27.356Z,17.00
2019-03-23T11:44:28.080Z,17.11
2019-03-23T11:45:27.325Z,17.03
2019-03-23T11:46:27.319Z,17.04
2019-03-23T11:47:27.303Z,17.07
2019-03-23T11:48:27.315Z,17.19
2019-03-23T11:49:27.302Z,17.18
2019-03-23T11:50:27.276Z,17.15
2019-03-23T11:51:27.260Z,17.25
2019-03-23T11:52:27.265Z,17.16
2019-03-23T11:53:27.262Z,17.16
2019-03-23T11:54:27.280Z,17.11
2019-03-23T11:55:27.226Z,17.14
2019-03-23T11:56:30.588Z,17.03
2019-03-23T11:57:27.199Z,17.12
2019-03-23T11:58:27.190Z,17.12
2019-03-23T11:59:27.175Z,17.06
2019-03-23T12:00:27.197Z,17.03
2019-03-23T12:01:27.177Z,16.96
2019-03-23T12:02:27.142Z,16.98
2019-03-23T12:03:27.128Z,17.01
2019-03-23T12:04:27.130Z,16.96
2019-03-23T12:05:27.162Z,16.82
2019-03-23T12:06:27.114Z,16.70
2019-03-23T12:07:27.094Z,16.75
2019-03-23T12:08:27.075Z,16.78
2019-03-23T12:09:27.073Z,16.67
2019-03-23T12:10:27.091Z,16.67
2019-03-23T12:11:27.063Z,16.68
2019-03-23T12:12:27.070Z,16.60
2019-03-23T12:13:27.013Z,16.49
2019-03-23T12:14:26.999Z,16.48
2019-03-23T12:15:26.995Z,16.58
2019-03-23T12:16:27.045Z,16.46
2019-03-23T12:17:26.974Z,16.41
2019-03-23T12:18:26.955Z,16.49
2019-03-23T12:19:26.941Z,16.46
2019-03-23T12:20:26.941Z,16.45
2019-03-23T12:21:26.919Z,16.34
2019-03-23T12:22:26.952Z,16.45
2019-03-23T12:23:26.909Z,16.46
2019-03-23T12:24:26.894Z,16.33
2019-03-23T12:25:26.882Z,16.23
2019-03-23T12:26:26.867Z,16.15
2019-03-23T12:27:26.866Z,16.00
2019-03-23T12:28:26.877Z,15.89
2019-03-23T12:29:26.829Z,15.78
2019-03-23T12:30:26.818Z,15.65
2019-03-23T12:31:26.806Z,15.44
2019-03-23T12:32:26.850Z,15.27
2019-03-23T12:33:26.788Z,15.14
2019-03-23T12:34:26.775Z,15.19
2019-03-23T12:35:26.766Z,15.10
2019-03-23T12:36:26.768Z,15.01
2019-03-23T12:37:26.784Z,14.86
2019-03-23T12:38:26.732Z,14.80
2019-03-23T12:39:26.722Z,14.64
2019-03-23T12:40:26.705Z,14.65
2019-03-23T12:41:26.699Z,14.70
2019-03-23T12:42:26.715Z,14.77
2019-03-23T12:43:26.719Z,14.84
2019-03-23T12:44:26.666Z,14.94
2019-03-23T12:45:26.650Z,14.92
2019-03-23T12:46:26.644Z,14.86
2019-03-23T12:47:26.626Z,14.70
2019-03-23T12:48:26.623Z,14.68
2019-03-23T12:49:26.640Z,14.52
2019-03-23T12:50:26.603Z,14.45
2019-03-23T12:51:26.583Z,14.42
2019-03-23T12:52:26.574Z,14.46
2019-03-23T12:53:26.570Z,14.42
2019-03-23T12:54:26.705Z,14.28
2019-03-23T12:55:26.566Z,14.25
2019-03-23T12:56:26.532Z,14.40
2019-03-23T12:57:26.525Z,14.33
2019-03-23T12:58:26.509Z,14.46
2019-03-23T12:59:26.492Z,14.46
2019-03-23T13:00:26.524Z,14.45
2019-03-23T13:01:26.484Z,14.39
2019-03-23T13:02:26.463Z,14.47
2019-03-23T13:03:26.471Z,14.47
2019-03-23T13:04:26.438Z,14.42
2019-03-23T13:05:26.454Z,14.55
2019-03-23T13:06:26.420Z,14.57
2019-03-23T13:07:26.417Z,14.61
2019-03-23T13:08:26.398Z,14.58
2019-03-23T13:09:26.387Z,14.58
2019-03-23T13:10:26.388Z,14.62